createdAt,value
2022-09-04T00:01:32.186Z,99154.41
2022-09-04T00:04:43.471Z,99163.78
2022-09-04T00:07:40.124Z,99153.84
2022-09-04T00:10:32.115Z,99158.84
2022-09-04T00:13:28.317Z,99161.34
2022-09-04T00:16:21.037Z,99169.06
2022-09-04T00:18:58.324Z,99171.00
2022-09-04T00:21:55.353Z,99166.59
2022-09-04T00:24:54.225Z,99180.19
2022-09-04T00:27:43.578Z,99175.53
2022-09-04T00:30:20.498Z,99175.53
2022-09-04T00:33:16.831Z,99183.22
2022-09-04T00:36:00.392Z,99179.13
2022-09-04T00:38:48.047Z,99184.59
2022-09-04T00:41:56.363Z,99171.34
2022-09-04T00:44:47.771Z,99177.13
2022-09-04T00:47:48.891Z,99182.38
2022-09-04T00:51:07.066Z,99184.59
2022-09-04T00:53:52.024Z,99186.53
2022-09-04T00:56:47.133Z,99179.88
2022-09-04T00:59:49.320Z,99185.97
2022-09-04T01:02:57.404Z,99184.59
2022-09-04T01:05:49.120Z,99194.00
2022-09-04T01:08:23.728Z,99186.25
2022-09-04T01:11:10.741Z,99188.72
2022-09-04T01:14:25.576Z,99177.38
2022-09-04T01:17:27.789Z,99184.56
2022-09-04T01:20:48.048Z,99180.69
2022-09-04T01:26:46.311Z,99179.84
2022-09-04T01:29:36.289Z,99183.72
2022-09-04T01:32:53.055Z,99181.50
2022-09-04T01:35:42.113Z,99182.34
2022-09-04T01:38:26.088Z,99186.47
2022-09-04T01:41:12.126Z,99185.97
2022-09-04T01:43:42.315Z,99183.19
2022-09-04T01:46:42.404Z,99189.50
2022-09-04T01:49:38.153Z,99187.56
2022-09-04T01:53:09.606Z,99184.50
2022-09-04T01:55:54.594Z,99180.66
2022-09-04T01:58:39.136Z,99175.38
2022-09-04T02:01:57.156Z,99176.19
2022-09-04T02:04:56.527Z,99187.81
2022-09-04T02:07:47.277Z,99181.19
2022-09-04T02:10:50.203Z,99185.88
2022-09-04T02:13:45.145Z,99180.66
2022-09-04T02:16:22.763Z,99177.28
2022-09-04T02:19:19.157Z,99186.94
2022-09-04T02:22:34.839Z,99180.56
2022-09-04T02:25:26.183Z,99181.38
2022-09-04T02:28:33.978Z,99172.56
2022-09-04T02:31:31.893Z,99175.59
2022-09-04T02:34:44.620Z,99171.19
2022-09-04T02:37:20.570Z,99176.94
2022-09-04T02:40:16.902Z,99175.31
2022-09-04T02:45:40.750Z,99172.00
2022-09-04T02:48:41.856Z,99169.22
2022-09-04T02:51:46.868Z,99172.00
2022-09-04T02:54:48.722Z,99179.78
2022-09-04T02:57:27.751Z,99184.16
2022-09-04T03:00:21.589Z,99185.31
2022-09-04T03:03:24.562Z,99180.06
2022-09-04T03:06:09.506Z,99182.28
2022-09-04T03:09:11.024Z,99177.03
2022-09-04T03:11:49.159Z,99174.31
2022-09-04T03:14:46.754Z,99183.69
2022-09-04T03:17:38.660Z,99179.56
2022-09-04T03:20:26.004Z,99182.84
2022-09-04T03:23:30.702Z,99185.34
2022-09-04T03:26:29.415Z,99189.78
2022-09-04T03:29:12.454Z,99179.25
2022-09-04T03:32:15.176Z,99188.94
2022-09-04T03:35:14.364Z,99194.75
2022-09-04T03:38:07.823Z,99192.25
2022-09-04T03:40:57.908Z,99191.97
2022-09-04T03:46:47.764Z,99200.84
2022-09-04T03:49:21.926Z,99200.00
2022-09-04T03:52:14.059Z,99194.19
2022-09-04T03:55:03.717Z,99203.31
2022-09-04T03:58:02.221Z,99205.25
2022-09-04T04:00:59.808Z,99198.66
2022-09-04T04:03:42.449Z,99196.72
2022-09-04T04:06:49.998Z,99202.25
2022-09-04T04:10:07.796Z,99210.53
2022-09-04T04:12:52.960Z,99206.66
2022-09-04T04:15:58.655Z,99208.31
2022-09-04T04:19:03.056Z,99211.38
2022-09-04T04:22:23.835Z,99209.72
2022-09-04T04:25:07.598Z,99214.13
2022-09-04T04:28:09.384Z,99213.84
2022-09-04T04:30:54.649Z,99219.13
2022-09-04T04:33:49.585Z,99225.50
2022-09-04T04:36:22.927Z,99234.31
2022-09-04T04:39:03.408Z,99231.81
2022-09-04T04:42:05.912Z,99233.78
2022-09-04T04:45:04.325Z,99249.25
2022-09-04T04:48:36.622Z,99248.41
2022-09-04T04:51:16.119Z,99253.44
2022-09-04T04:54:00.588Z,99257.28
2022-09-04T04:56:58.129Z,99262.81
2022-09-04T04:59:56.583Z,99271.94
2022-09-04T05:02:41.364Z,99263.97
2022-09-04T05:05:18.826Z,99275.88
2022-09-04T05:08:07.696Z,99274.22
2022-09-04T05:10:43.969Z,99287.47
2022-09-04T05:14:05.668Z,99285.53
2022-09-04T05:17:12.507Z,99296.84
2022-09-04T05:20:20.479Z,99297.44
2022-09-04T05:23:36.725Z,99292.47
2022-09-04T05:26:25.780Z,99286.66
2022-09-04T05:29:05.223Z,99300.78
2022-09-04T05:31:56.818Z,99309.34
2022-09-04T05:34:50.719Z,99306.59
2022-09-04T05:37:35.430Z,99316.81
2022-09-04T05:40:33.538Z,99328.44
2022-09-04T05:43:57.373Z,99330.94
2022-09-04T05:47:10.265Z,99329.88
2022-09-04T05:49:55.195Z,99340.94
2022-09-04T05:53:10.195Z,99343.69
2022-09-04T05:56:21.346Z,99350.59
2022-09-04T05:59:38.937Z,99366.63
2022-09-04T06:03:05.226Z,99371.00
2022-09-04T06:06:20.924Z,99379.06
2022-09-04T06:09:21.737Z,99380.44
2022-09-04T06:12:06.121Z,99391.50
2022-09-04T06:14:57.714Z,99396.19
2022-09-04T06:18:10.379Z,99384.31
2022-09-04T06:20:50.176Z,99395.38
2022-09-04T06:23:49.098Z,99393.75
2022-09-04T06:26:31.478Z,99395.44
2022-09-04T06:29:42.626Z,99397.94
2022-09-04T06:32:35.007Z,99404.25
2022-09-04T06:35:17.452Z,99397.38
2022-09-04T06:38:00.116Z,99404.25
2022-09-04T06:40:56.740Z,99408.97
2022-09-04T06:43:42.200Z,99407.59
2022-09-04T06:46:50.523Z,99411.75
2022-09-04T06:49:24.811Z,99409.81
2022-09-04T06:52:26.924Z,99422.22
2022-09-04T06:55:09.985Z,99424.72
2022-09-04T06:57:46.768Z,99425.81
2022-09-04T07:00:17.734Z,99425.25
2022-09-04T07:03:09.297Z,99433.28
2022-09-04T07:06:04.674Z,99437.97
2022-09-04T07:08:46.818Z,99435.78
2022-09-04T07:11:59.467Z,99431.09
2022-09-04T07:15:02.906Z,99436.63
2022-09-04T07:17:59.523Z,99435.22
2022-09-04T07:21:19.899Z,99442.13
2022-09-04T07:24:47.426Z,99453.16
2022-09-04T07:28:11.760Z,99448.19
2022-09-04T07:31:04.293Z,99451.22
2022-09-04T07:34:19.264Z,99462.84
2022-09-04T07:37:14.691Z,99460.06
2022-09-04T07:40:17.522Z,99470.84
2022-09-04T07:43:03.963Z,99475.28
2022-09-04T07:45:51.722Z,99477.75
2022-09-04T07:48:44.804Z,99468.94
2022-09-04T07:51:18.848Z,99476.94
2022-09-04T07:54:25.312Z,99483.00
2022-09-04T07:57:28.603Z,99482.75
2022-09-04T08:00:10.851Z,99495.16
2022-09-04T08:03:22.726Z,99482.75
2022-09-04T08:09:55.649Z,99496.56
2022-09-04T08:12:47.952Z,99500.41
2022-09-04T08:15:47.443Z,99505.38
2022-09-04T08:18:40.342Z,99515.31
2022-09-04T08:21:33.191Z,99506.19
2022-09-04T08:25:00.748Z,99512.81
2022-09-04T08:28:22.151Z,99524.69
2022-09-04T08:31:14.334Z,99516.97
2022-09-04T08:38:08.839Z,99521.69
2022-09-04T08:41:01.992Z,99525.53
2022-09-04T08:44:02.855Z,99526.38
2022-09-04T08:47:34.088Z,99528.59
2022-09-04T08:54:02.016Z,99525.25
2022-09-04T09:00:08.157Z,99534.13
2022-09-04T09:05:34.946Z,99522.22
2022-09-04T09:08:29.699Z,99528.03
2022-09-04T09:11:30.147Z,99530.78
2022-09-04T09:14:52.064Z,99535.47
2022-09-04T09:20:19.377Z,99536.84
2022-09-04T09:23:18.770Z,99536.59
2022-09-04T09:26:38.249Z,99539.34
2022-09-04T09:32:16.212Z,99532.69
2022-09-04T09:38:10.294Z,99537.94
2022-09-04T09:45:09.213Z,99546.50
2022-09-04T09:48:20.448Z,99540.41
2022-09-04T09:50:56.099Z,99544.84
2022-09-04T09:54:07.061Z,99541.22
2022-09-04T09:57:12.846Z,99542.31
2022-09-04T10:00:11.993Z,99540.09
2022-09-04T10:03:14.099Z,99542.91
2022-09-04T10:06:23.646Z,99529.31
2022-09-04T10:09:17.957Z,99537.56
2022-09-04T10:15:47.873Z,99530.63
2022-09-04T10:18:50.593Z,99536.97
2022-09-04T10:21:30.003Z,99531.44
2022-09-04T10:24:22.648Z,99534.16
2022-09-04T10:27:24.066Z,99524.50
2022-09-04T10:29:59.710Z,99536.09
2022-09-04T10:32:57.630Z,99530.53
2022-09-04T10:47:29.766Z,99528.53
2022-09-04T10:50:04.118Z,99525.81
2022-09-04T10:53:50.215Z,99523.56
2022-09-04T10:56:53.297Z,99524.09
2022-09-04T10:59:33.547Z,99530.41
2022-09-04T11:02:12.725Z,99525.44
2022-09-04T11:05:14.760Z,99533.44
2022-09-04T11:11:40.895Z,99525.88
2022-09-04T11:14:16.756Z,99529.13
2022-09-04T11:58:14.122Z,99532.56
2022-09-04T13:22:26.924Z,99530.00
2022-09-04T13:25:23.504Z,99530.78
2022-09-04T13:28:45.913Z,99542.47
2022-09-04T14:14:11.186Z,99540.69
2022-09-04T14:16:44.135Z,99538.44
2022-09-04T14:19:43.161Z,99539.22
2022-09-04T14:22:43.509Z,99534.78
2022-09-04T14:25:19.360Z,99541.38
2022-09-04T14:28:07.814Z,99535.59
2022-09-04T14:30:54.889Z,99531.00
2022-09-04T14:34:04.160Z,99532.09
2022-09-04T14:37:00.159Z,99515.16
2022-09-04T14:40:17.013Z,99521.56
2022-09-04T14:43:16.173Z,99517.94
2022-09-04T14:52:05.129Z,99506.28
2022-09-04T17:07:08.048Z,99572.50
2022-09-04T17:09:50.381Z,99572.25
2022-09-04T17:12:43.252Z,99579.44
2022-09-04T17:15:27.102Z,99579.47
2022-09-04T17:17:56.382Z,99578.66
2022-09-04T17:25:05.704Z,99579.22
2022-09-04T17:29:01.370Z,99579.75
2022-09-04T17:29:12.480Z,99586.69
2022-09-04T17:29:54.386Z,99584.78
2022-09-04T17:38:59.744Z,99604.75
2022-09-04T17:40:44.299Z,99607.81
2022-09-04T17:40:50.007Z,99600.34
2022-09-04T17:42:00.772Z,99607.56
2022-09-04T17:45:04.370Z,99616.72
2022-09-04T17:47:44.026Z,99628.91
2022-09-04T17:50:23.937Z,99630.56
2022-09-04T17:53:02.278Z,99630.31
2022-09-04T17:55:38.801Z,99632.84
2022-09-04T17:58:30.139Z,99634.50
2022-09-04T18:01:14.159Z,99628.72
2022-09-04T18:04:21.806Z,99642.00
2022-09-04T18:07:33.590Z,99644.22
2022-09-04T18:10:52.069Z,99640.38
2022-09-04T18:13:37.461Z,99641.16
2022-09-04T18:16:53.316Z,99644.81
2022-09-04T18:19:51.691Z,99643.69
2022-09-04T18:25:21.757Z,99647.59
2022-09-04T18:28:10.985Z,99655.66
2022-09-04T18:37:10.472Z,99643.75
2022-09-04T18:37:26.901Z,99629.41
2022-09-04T18:38:02.108Z,99644.06
2022-09-04T18:44:00.855Z,99651.28
2022-09-04T18:50:31.291Z,99653.22
2022-09-04T18:50:34.795Z,99664.84
2022-09-04T18:50:52.091Z,99655.41
2022-09-04T18:52:43.485Z,99660.69
2022-09-04T18:55:32.248Z,99657.91
2022-09-04T18:58:11.547Z,99661.22
2022-09-04T19:01:06.659Z,99661.22
2022-09-04T19:03:47.944Z,99659.84
2022-09-04T19:06:35.029Z,99654.03
2022-09-04T19:09:14.641Z,99660.13
2022-09-04T19:11:54.999Z,99667.31
2022-09-04T19:14:35.323Z,99661.78
2022-09-04T19:17:21.293Z,99660.69
2022-09-04T19:20:02.760Z,99661.25
2022-09-04T19:22:40.021Z,99663.16
2022-09-04T19:25:30.647Z,99666.22
2022-09-04T19:28:16.553Z,99675.34
2022-09-04T19:30:58.902Z,99667.59
2022-09-04T19:34:03.744Z,99673.13
2022-09-04T19:36:49.803Z,99669.81
2022-09-04T19:45:59.686Z,99677.00
2022-09-04T19:46:03.737Z,99671.75
2022-09-04T19:46:43.237Z,99677.81
2022-09-04T19:53:12.865Z,99688.63
2022-09-04T19:53:31.647Z,99694.44
2022-09-04T19:55:46.347Z,99697.19
2022-09-04T19:58:43.943Z,99698.28
2022-09-04T20:01:26.191Z,99694.69
2022-09-04T20:04:11.871Z,99696.06
2022-09-04T20:06:55.229Z,99683.09
2022-09-04T20:09:51.384Z,99688.06
2022-09-04T20:12:27.906Z,99686.41
2022-09-04T20:15:18.178Z,99684.75
2022-09-04T20:18:08.533Z,99691.63
2022-09-04T20:20:45.069Z,99692.75
2022-09-04T20:23:34.259Z,99693.59
2022-09-04T20:26:27.749Z,99689.97
2022-09-04T20:29:54.807Z,99684.47
2022-09-04T20:32:37.128Z,99697.44
2022-09-04T20:35:44.515Z,99697.72
2022-09-04T20:38:23.251Z,99693.28
2022-09-04T20:41:19.180Z,99701.31
2022-09-04T20:44:31.405Z,99696.59
2022-09-04T20:52:43.975Z,99694.94
2022-09-04T20:52:48.889Z,99704.59
2022-09-04T20:53:23.769Z,99701.53
2022-09-04T20:57:13.655Z,99711.75
2022-09-04T21:03:14.704Z,99707.88
2022-09-04T21:03:21.234Z,99712.03
2022-09-04T21:06:13.133Z,99710.94
2022-09-04T21:09:22.728Z,99708.44
2022-09-04T21:12:15.171Z,99715.63
2022-09-04T21:14:48.582Z,99715.34
2022-09-04T21:17:49.994Z,99716.97
2022-09-04T21:21:00.001Z,99713.63
2022-09-04T21:23:41.754Z,99720.00
2022-09-04T21:26:22.746Z,99723.00
2022-09-04T21:29:11.583Z,99732.44
2022-09-04T21:32:10.797Z,99724.41
2022-09-04T21:35:06.953Z,99729.09
2022-09-04T21:38:39.166Z,99734.59
2022-09-04T21:41:27.999Z,99726.88
2022-09-04T21:44:28.568Z,99732.91
2022-09-04T21:47:22.539Z,99736.50
2022-09-04T21:50:30.571Z,99739.56
2022-09-04T21:53:44.115Z,99741.50
2022-09-04T22:01:07.547Z,99733.75
2022-09-04T22:02:37.797Z,99731.78
2022-09-04T22:02:57.625Z,99739.00
2022-09-04T22:06:04.500Z,99731.50
2022-09-04T22:13:35.445Z,99743.38
2022-09-04T22:13:41.779Z,99742.31
2022-09-04T22:15:07.424Z,99738.69
2022-09-04T22:17:45.034Z,99737.03
2022-09-04T22:20:44.414Z,99747.56
2022-09-04T22:23:20.850Z,99745.91
2022-09-04T22:26:09.205Z,99750.31
2022-09-04T22:29:03.641Z,99742.56
2022-09-04T22:32:44.519Z,99740.91
2022-09-04T22:35:20.527Z,99746.44
2022-09-04T22:38:50.860Z,99748.38
2022-09-04T22:41:27.047Z,99753.09
2022-09-04T22:44:05.438Z,99752.19
2022-09-04T22:47:23.130Z,99751.09
2022-09-04T22:50:25.295Z,99756.06
2022-09-04T22:53:40.341Z,99756.06
2022-09-04T22:56:23.456Z,99752.50
2022-09-04T22:59:26.854Z,99756.94
2022-09-04T23:03:07.283Z,99757.50
2022-09-04T23:06:01.628Z,99760.25
2022-09-04T23:13:42.211Z,99764.69
2022-09-04T23:13:58.573Z,99766.56
2022-09-04T23:15:39.521Z,99756.63
2022-09-04T23:21:12.223Z,99750.56
2022-09-04T23:26:33.169Z,99766.28
2022-09-04T23:26:53.816Z,99762.94
2022-09-04T23:28:27.543Z,99762.38
2022-09-04T23:31:37.227Z,99760.72
2022-09-04T23:34:27.400Z,99764.34
2022-09-04T23:40:10.886Z,99764.00
2022-09-04T23:43:18.884Z,99765.41
2022-09-04T23:46:31.417Z,99772.03
2022-09-04T23:49:33.379Z,99769.53
2022-09-04T23:52:49.030Z,99778.09
2022-09-04T23:55:44.975Z,99762.03
2022-09-04T23:59:20.326Z,99759.88
